sensor_id;sensor_type;location;lat;lon;timestamp;pressure;altitude;pressure_sealevel;temperature;humidity
51289;BME280;37372;52.294;5.152;2022-09-12T00:00:09;101818.84;;;13.83;100.00
51289;BME280;37372;52.294;5.152;2022-09-12T00:02:35;101818.84;;;13.83;100.00
51289;BME280;37372;52.294;5.152;2022-09-12T00:05:01;101820.47;;;13.84;100.00
51289;BME280;37372;52.294;5.152;2022-09-12T00:07:26;101822.88;;;13.82;100.00
51289;BME280;37372;52.294;5.152;2022-09-12T00:09:52;101820.06;;;13.82;100.00
51289;BME280;37372;52.294;5.152;2022-09-12T00:12:17;101821.69;;;13.80;100.00
51289;BME280;37372;52.294;5.152;2022-09-12T00:14:43;101817.25;;;13.79;100.00
51289;BME280;37372;52.294;5.152;2022-09-12T00:17:08;101824.53;;;13.76;100.00
51289;BME280;37372;52.294;5.152;2022-09-12T00:19:34;101816.88;;;13.77;100.00
51289;BME280;37372;52.294;5.152;2022-09-12T00:21:59;101809.63;;;13.76;100.00
51289;BME280;37372;52.294;5.152;2022-09-12T00:24:24;101804.41;;;13.74;100.00
51289;BME280;37372;52.294;5.152;2022-09-12T00:26:50;101815.31;;;13.72;100.00
51289;BME280;37372;52.294;5.152;2022-09-12T00:29:17;101812.47;;;13.72;100.00
51289;BME280;37372;52.294;5.152;2022-09-12T00:31:43;101804.81;;;13.73;100.00
51289;BME280;37372;52.294;5.152;2022-09-12T00:34:09;101806.06;;;13.72;100.00
51289;BME280;37372;52.294;5.152;2022-09-12T00:36:34;101801.22;;;13.68;100.00
51289;BME280;37372;52.294;5.152;2022-09-12T00:39:01;101804.47;;;13.67;100.00
51289;BME280;37372;52.294;5.152;2022-09-12T00:41:30;101798.81;;;13.67;100.00
51289;BME280;37372;52.294;5.152;2022-09-12T00:44:01;101801.25;;;13.65;100.00
51289;BME280;37372;52.294;5.152;2022-09-12T00:46:36;101789.19;;;13.64;100.00
51289;BME280;37372;52.294;5.152;2022-09-12T00:49:26;101790.81;;;13.62;100.00
51289;BME280;37372;52.294;5.152;2022-09-12T00:51:54;101791.59;;;13.62;100.00
51289;BME280;37372;52.294;5.152;2022-09-12T00:54:25;101793.22;;;13.60;100.00
51289;BME280;37372;52.294;5.152;2022-09-12T00:56:55;101794.06;;;13.57;100.00
51289;BME280;37372;52.294;5.152;2022-09-12T00:59:30;101790.84;;;13.55;100.00
51289;BME280;37372;52.294;5.152;2022-09-12T01:01:56;101793.28;;;13.56;100.00
51289;BME280;37372;52.294;5.152;2022-09-12T01:04:24;101788.06;;;13.51;100.00
51289;BME280;37372;52.294;5.152;2022-09-12T01:06:50;101785.66;;;13.50;100.00
51289;BME280;37372;52.294;5.152;2022-09-12T01:09:19;101782.03;;;13.49;100.00
51289;BME280;37372;52.294;5.152;2022-09-12T01:11:46;101781.25;;;13.45;100.00
51289;BME280;37372;52.294;5.152;2022-09-12T01:14:14;101788.13;;;13.40;100.00
51289;BME280;37372;52.294;5.152;2022-09-12T01:16:39;101780.09;;;13.39;100.00
51289;BME280;37372;52.294;5.152;2022-09-12T01:24:45;101772.47;;;13.36;100.00
51289;BME280;37372;52.294;5.152;2022-09-12T01:27:53;101770.44;;;13.36;100.00
51289;BME280;37372;52.294;5.152;2022-09-12T01:30:48;101762.00;;;13.33;100.00
51289;BME280;37372;52.294;5.152;2022-09-12T01:33:35;101762.81;;;13.33;100.00
51289;BME280;37372;52.294;5.152;2022-09-12T01:36:38;101757.19;;;13.30;100.00
51289;BME280;37372;52.294;5.152;2022-09-12T01:39:13;101757.97;;;13.34;100.00
51289;BME280;37372;52.294;5.152;2022-09-12T01:41:47;101761.19;;;13.32;100.00
51289;BME280;37372;52.294;5.152;2022-09-12T01:44:22;101762.44;;;13.28;100.00
51289;BME280;37372;52.294;5.152;2022-09-12T01:47:10;101761.63;;;13.27;100.00
51289;BME280;37372;52.294;5.152;2022-09-12T01:52:40;101749.13;;;13.24;100.00
51289;BME280;37372;52.294;5.152;2022-09-12T01:55:13;101746.34;;;13.21;100.00
51289;BME280;37372;52.294;5.152;2022-09-12T01:58:07;101739.50;;;13.22;100.00
51289;BME280;37372;52.294;5.152;2022-09-12T02:00:37;101742.72;;;13.24;100.00
51289;BME280;37372;52.294;5.152;2022-09-12T02:03:08;101735.50;;;13.23;100.00
51289;BME280;37372;52.294;5.152;2022-09-12T02:05:41;101738.31;;;13.23;100.00
51289;BME280;37372;52.294;5.152;2022-09-12T02:10:46;101733.03;;;13.25;100.00
51289;BME280;37372;52.294;5.152;2022-09-12T02:13:30;101726.59;;;13.24;100.00
51289;BME280;37372;52.294;5.152;2022-09-12T02:16:05;101725.41;;;13.22;100.00
51289;BME280;37372;52.294;5.152;2022-09-12T02:18:32;101726.63;;;13.21;100.00
51289;BME280;37372;52.294;5.152;2022-09-12T02:21:04;101720.59;;;13.19;100.00
51289;BME280;37372;52.294;5.152;2022-09-12T02:23:31;101725.84;;;13.20;100.00
51289;BME280;37372;52.294;5.152;2022-09-12T02:26:03;101722.63;;;13.18;100.00
51289;BME280;37372;52.294;5.152;2022-09-12T02:28:34;101721.00;;;13.21;100.00
51289;BME280;37372;52.294;5.152;2022-09-12T02:31:22;101717.75;;;13.22;100.00
51289;BME280;37372;52.294;5.152;2022-09-12T02:34:05;101725.41;;;13.22;100.00
51289;BME280;37372;52.294;5.152;2022-09-12T02:36:36;101706.47;;;13.22;100.00
51289;BME280;37372;52.294;5.152;2022-09-12T02:39:04;101712.94;;;13.23;100.00
51289;BME280;37372;52.294;5.152;2022-09-12T02:41:29;101711.31;;;13.22;100.00
51289;BME280;37372;52.294;5.152;2022-09-12T02:43:55;101701.69;;;13.23;100.00
51289;BME280;37372;52.294;5.152;2022-09-12T02:46:41;101708.50;;;13.25;100.00
51289;BME280;37372;52.294;5.152;2022-09-12T02:49:08;101698.03;;;13.26;100.00
51289;BME280;37372;52.294;5.152;2022-09-12T02:51:33;101706.91;;;13.28;100.00
51289;BME280;37372;52.294;5.152;2022-09-12T02:53:59;101702.47;;;13.31;100.00
51289;BME280;37372;52.294;5.152;2022-09-12T02:56:29;101703.66;;;13.33;100.00
51289;BME280;37372;52.294;5.152;2022-09-12T02:59:00;101699.22;;;13.32;100.00
51289;BME280;37372;52.294;5.152;2022-09-12T03:10:13;101696.84;;;13.23;100.00
51289;BME280;37372;52.294;5.152;2022-09-12T03:18:41;101690.41;;;13.19;100.00
51289;BME280;37372;52.294;5.152;2022-09-12T03:21:30;101690.41;;;13.23;100.00
51289;BME280;37372;52.294;5.152;2022-09-12T03:24:20;101688.03;;;13.18;100.00
51289;BME280;37372;52.294;5.152;2022-09-12T03:27:11;101685.56;;;13.20;100.00
51289;BME280;37372;52.294;5.152;2022-09-12T03:29:40;101676.75;;;13.18;100.00
51289;BME280;37372;52.294;5.152;2022-09-12T03:32:07;101686.41;;;13.17;100.00
51289;BME280;37372;52.294;5.152;2022-09-12T03:34:33;101676.38;;;13.16;100.00
51289;BME280;37372;52.294;5.152;2022-09-12T03:36:58;101677.59;;;13.11;100.00
51289;BME280;37372;52.294;5.152;2022-09-12T03:39:24;101680.38;;;13.15;100.00
51289;BME280;37372;52.294;5.152;2022-09-12T03:41:50;101675.56;;;13.15;100.00
51289;BME280;37372;52.294;5.152;2022-09-12T03:44:16;101676.38;;;13.12;100.00
51289;BME280;37372;52.294;5.152;2022-09-12T03:46:42;101668.75;;;13.13;100.00
51289;BME280;37372;52.294;5.152;2022-09-12T03:49:07;101673.56;;;13.16;100.00
51289;BME280;37372;52.294;5.152;2022-09-12T03:51:33;101672.31;;;13.17;100.00
51289;BME280;37372;52.294;5.152;2022-09-12T03:53:58;101661.03;;;13.20;100.00
51289;BME280;37372;52.294;5.152;2022-09-12T03:56:24;101660.22;;;13.23;100.00
51289;BME280;37372;52.294;5.152;2022-09-12T03:58:49;101667.44;;;13.24;100.00
51289;BME280;37372;52.294;5.152;2022-09-12T04:01:16;101667.03;;;13.26;100.00
51289;BME280;37372;52.294;5.152;2022-09-12T04:03:43;101661.81;;;13.28;100.00
51289;BME280;37372;52.294;5.152;2022-09-12T04:06:11;101667.81;;;13.30;100.00
51289;BME280;37372;52.294;5.152;2022-09-12T04:08:38;101665.41;;;13.32;100.00
51289;BME280;37372;52.294;5.152;2022-09-12T04:11:06;101654.91;;;13.33;100.00
51289;BME280;37372;52.294;5.152;2022-09-12T04:13:31;101659.75;;;13.32;100.00
51289;BME280;37372;52.294;5.152;2022-09-12T04:15:58;101657.34;;;13.34;100.00
51289;BME280;37372;52.294;5.152;2022-09-12T04:18:23;101655.75;;;13.33;100.00
51289;BME280;37372;52.294;5.152;2022-09-12T04:20:49;101650.91;;;13.34;100.00
51289;BME280;37372;52.294;5.152;2022-09-12T04:23:15;101654.53;;;13.34;100.00
51289;BME280;37372;52.294;5.152;2022-09-12T04:25:40;101655.31;;;13.35;100.00
51289;BME280;37372;52.294;5.152;2022-09-12T04:28:05;101658.13;;;13.38;100.00
51289;BME280;37372;52.294;5.152;2022-09-12T04:30:32;101664.94;;;13.41;100.00
51289;BME280;37372;52.294;5.152;2022-09-12T04:32:58;101658.88;;;13.42;100.00
51289;BME280;37372;52.294;5.152;2022-09-12T04:35:24;101667.72;;;13.44;100.00
51289;BME280;37372;52.294;5.152;2022-09-12T04:37:49;101667.72;;;13.44;100.00
51289;BME280;37372;52.294;5.152;2022-09-12T04:40:14;101660.03;;;13.49;100.00
51289;BME280;37372;52.294;5.152;2022-09-12T04:42:40;101666.88;;;13.48;100.00
51289;BME280;37372;52.294;5.152;2022-09-12T04:45:06;101672.53;;;13.48;100.00
51289;BME280;37372;52.294;5.152;2022-09-12T04:47:31;101663.66;;;13.49;100.00
51289;BME280;37372;52.294;5.152;2022-09-12T04:49:57;101660.03;;;13.49;100.00
51289;BME280;37372;52.294;5.152;2022-09-12T04:52:22;101662.88;;;13.49;100.00
51289;BME280;37372;52.294;5.152;2022-09-12T04:54:47;101657.22;;;13.49;100.00
51289;BME280;37372;52.294;5.152;2022-09-12T04:57:13;101661.63;;;13.50;100.00
51289;BME280;37372;52.294;5.152;2022-09-12T04:59:38;101658.03;;;13.49;100.00
51289;BME280;37372;52.294;5.152;2022-09-12T05:02:04;101651.94;;;13.51;100.00
51289;BME280;37372;52.294;5.152;2022-09-12T05:04:30;101660.41;;;13.51;100.00
51289;BME280;37372;52.294;5.152;2022-09-12T05:06:55;101651.94;;;13.51;100.00
51289;BME280;37372;52.294;5.152;2022-09-12T05:09:21;101648.34;;;13.50;100.00
51289;BME280;37372;52.294;5.152;2022-09-12T05:11:46;101656.00;;;13.50;100.00
51289;BME280;37372;52.294;5.152;2022-09-12T05:14:12;101655.59;;;13.51;100.00
51289;BME280;37372;52.294;5.152;2022-09-12T05:16:37;101655.94;;;13.53;100.00
51289;BME280;37372;52.294;5.152;2022-09-12T05:19:03;101654.78;;;13.51;100.00
51289;BME280;37372;52.294;5.152;2022-09-12T05:21:28;101647.94;;;13.52;100.00
51289;BME280;37372;52.294;5.152;2022-09-12T05:23:55;101648.31;;;13.54;100.00
51289;BME280;37372;52.294;5.152;2022-09-12T05:26:21;101647.50;;;13.53;100.00
51289;BME280;37372;52.294;5.152;2022-09-12T05:28:49;101651.53;;;13.52;100.00
51289;BME280;37372;52.294;5.152;2022-09-12T05:31:17;101645.94;;;13.49;100.00
51289;BME280;37372;52.294;5.152;2022-09-12T05:33:44;101648.38;;;13.46;100.00
51289;BME280;37372;52.294;5.152;2022-09-12T05:36:24;101652.41;;;13.45;100.00
51289;BME280;37372;52.294;5.152;2022-09-12T05:38:50;101645.16;;;13.44;100.00
51289;BME280;37372;52.294;5.152;2022-09-12T05:41:24;101638.75;;;13.44;100.00
51289;BME280;37372;52.294;5.152;2022-09-12T05:43:54;101639.53;;;13.44;100.00
51289;BME280;37372;52.294;5.152;2022-09-12T05:46:22;101643.16;;;13.45;100.00
51289;BME280;37372;52.294;5.152;2022-09-12T05:48:49;101637.09;;;13.46;100.00
51289;BME280;37372;52.294;5.152;2022-09-12T05:51:20;101641.91;;;13.50;100.00
51289;BME280;37372;52.294;5.152;2022-09-12T05:53:49;101634.69;;;13.49;100.00
51289;BME280;37372;52.294;5.152;2022-09-12T05:56:18;101639.09;;;13.50;100.00
51289;BME280;37372;52.294;5.152;2022-09-12T05:58:46;101634.25;;;13.50;100.00
51289;BME280;37372;52.294;5.152;2022-09-12T06:01:16;101633.84;;;13.52;100.00
51289;BME280;37372;52.294;5.152;2022-09-12T06:03:48;101639.47;;;13.52;100.00
51289;BME280;37372;52.294;5.152;2022-09-12T06:06:16;101641.91;;;13.50;100.00
51289;BME280;37372;52.294;5.152;2022-09-12T06:08:44;101654.78;;;13.51;100.00
51289;BME280;37372;52.294;5.152;2022-09-12T06:11:12;101649.13;;;13.51;100.00
51289;BME280;37372;52.294;5.152;2022-09-12T06:13:39;101651.53;;;13.52;100.00
51289;BME280;37372;52.294;5.152;2022-09-12T06:16:16;101651.50;;;13.56;100.00
51289;BME280;37372;52.294;5.152;2022-09-12T06:18:49;101654.31;;;13.56;100.00
51289;BME280;37372;52.294;5.152;2022-09-12T06:21:16;101648.69;;;13.56;100.00
51289;BME280;37372;52.294;5.152;2022-09-12T06:23:42;101644.66;;;13.57;100.00
51289;BME280;37372;52.294;5.152;2022-09-12T06:26:09;101635.78;;;13.58;100.00
51289;BME280;37372;52.294;5.152;2022-09-12T06:28:39;101631.72;;;13.63;100.00
51289;BME280;37372;52.294;5.152;2022-09-12T06:31:10;101634.06;;;13.68;100.00
51289;BME280;37372;52.294;5.152;2022-09-12T06:33:39;101631.66;;;13.70;100.00
51289;BME280;37372;52.294;5.152;2022-09-12T06:36:14;101627.25;;;13.69;100.00
51289;BME280;37372;52.294;5.152;2022-09-12T06:38:40;101622.34;;;13.73;100.00
51289;BME280;37372;52.294;5.152;2022-09-12T06:41:08;101626.31;;;13.79;100.00
51289;BME280;37372;52.294;5.152;2022-09-12T06:43:34;101618.22;;;13.81;100.00
51289;BME280;37372;52.294;5.152;2022-09-12T06:46:00;101622.94;;;13.92;100.00
51289;BME280;37372;52.294;5.152;2022-09-12T06:48:26;101624.09;;;13.98;100.00
51289;BME280;37372;52.294;5.152;2022-09-12T06:51:03;101625.22;;;14.04;100.00
51289;BME280;37372;52.294;5.152;2022-09-12T06:53:32;101634.06;;;14.09;100.00
51289;BME280;37372;52.294;5.152;2022-09-12T06:55:59;101630.78;;;14.15;100.00
51289;BME280;37372;52.294;5.152;2022-09-12T06:58:26;101630.72;;;14.18;100.00
51289;BME280;37372;52.294;5.152;2022-09-12T07:00:59;101629.88;;;14.21;100.00
51289;BME280;37372;52.294;5.152;2022-09-12T07:03:26;101628.19;;;14.27;100.00
51289;BME280;37372;52.294;5.152;2022-09-12T07:05:51;101627.72;;;14.32;100.00
51289;BME280;37372;52.294;5.152;2022-09-12T07:08:16;101626.44;;;14.37;100.00
51289;BME280;37372;52.294;5.152;2022-09-12T07:10:41;101631.22;;;14.44;100.00
51289;BME280;37372;52.294;5.152;2022-09-12T07:13:07;101627.50;;;14.50;100.00
51289;BME280;37372;52.294;5.152;2022-09-12T07:15:33;101631.41;;;14.60;100.00
51289;BME280;37372;52.294;5.152;2022-09-12T07:17:59;101628.50;;;14.67;100.00
51289;BME280;37372;52.294;5.152;2022-09-12T07:20:24;101618.69;;;14.75;100.00
51289;BME280;37372;52.294;5.152;2022-09-12T07:22:49;101621.03;;;14.81;100.00
51289;BME280;37372;52.294;5.152;2022-09-12T07:25:15;101626.28;;;14.82;100.00
51289;BME280;37372;52.294;5.152;2022-09-12T07:27:40;101626.59;;;14.88;100.00
51289;BME280;37372;52.294;5.152;2022-09-12T07:30:05;101626.47;;;14.95;100.00
51289;BME280;37372;52.294;5.152;2022-09-12T07:32:32;101629.56;;;15.04;100.00
51289;BME280;37372;52.294;5.152;2022-09-12T07:34:57;101622.22;;;15.10;100.00
51289;BME280;37372;52.294;5.152;2022-09-12T07:37:23;101622.97;;;15.14;100.00
51289;BME280;37372;52.294;5.152;2022-09-12T07:39:48;101624.03;;;15.24;100.00
51289;BME280;37372;52.294;5.152;2022-09-12T07:42:13;101620.63;;;15.33;100.00
51289;BME280;37372;52.294;5.152;2022-09-12T07:44:39;101620.06;;;15.41;100.00
51289;BME280;37372;52.294;5.152;2022-09-12T07:47:04;101625.56;;;15.52;100.00
51289;BME280;37372;52.294;5.152;2022-09-12T07:49:30;101624.56;;;15.62;100.00
51289;BME280;37372;52.294;5.152;2022-09-12T07:51:55;101621.16;;;15.75;100.00
51289;BME280;37372;52.294;5.152;2022-09-12T07:54:21;101615.69;;;15.84;100.00
51289;BME280;37372;52.294;5.152;2022-09-12T07:56:46;101619.13;;;15.95;100.00
51289;BME280;37372;52.294;5.152;2022-09-12T07:59:12;101623.06;;;16.01;100.00
51289;BME280;37372;52.294;5.152;2022-09-12T08:01:38;101622.78;;;16.16;100.00
51289;BME280;37372;52.294;5.152;2022-09-12T08:04:04;101619.25;;;16.28;100.00
51289;BME280;37372;52.294;5.152;2022-09-12T08:06:30;101618.97;;;16.42;100.00
51289;BME280;37372;52.294;5.152;2022-09-12T08:08:57;101623.34;;;16.47;100.00
51289;BME280;37372;52.294;5.152;2022-09-12T08:11:24;101621.13;;;16.55;100.00
51289;BME280;37372;52.294;5.152;2022-09-12T08:13:50;101622.94;;;16.65;100.00
51289;BME280;37372;52.294;5.152;2022-09-12T08:16:19;101621.09;;;16.75;100.00
51289;BME280;37372;52.294;5.152;2022-09-12T08:18:48;101631.47;;;16.81;100.00
51289;BME280;37372;52.294;5.152;2022-09-12T08:21:15;101626.28;;;16.96;100.00
51289;BME280;37372;52.294;5.152;2022-09-12T08:23:42;101628.16;;;17.03;98.85
51289;BME280;37372;52.294;5.152;2022-09-12T08:26:08;101630.38;;;17.11;98.22
51289;BME280;37372;52.294;5.152;2022-09-12T08:28:34;101626.94;;;17.20;96.98
51289;BME280;37372;52.294;5.152;2022-09-12T08:31:05;101634.72;;;17.32;95.90
51289;BME280;37372;52.294;5.152;2022-09-12T08:33:31;101636.22;;;17.37;92.95
51289;BME280;37372;52.294;5.152;2022-09-12T08:36:09;101625.84;;;17.47;93.63
51289;BME280;37372;52.294;5.152;2022-09-12T08:38:36;101626.81;;;17.56;92.14
51289;BME280;37372;52.294;5.152;2022-09-12T08:47:24;101624.06;;;17.69;91.86
51289;BME280;37372;52.294;5.152;2022-09-12T08:49:34;101626.34;;;17.74;90.26
51289;BME280;37372;52.294;5.152;2022-09-12T08:52:08;101624.66;;;17.77;89.13
51289;BME280;37372;52.294;5.152;2022-09-12T08:54:36;101621.47;;;17.75;89.33
51289;BME280;37372;52.294;5.152;2022-09-12T08:57:04;101620.97;;;17.80;88.51
51289;BME280;37372;52.294;5.152;2022-09-12T08:59:35;101617.81;;;17.91;87.94
51289;BME280;37372;52.294;5.152;2022-09-12T09:02:02;101622.25;;;17.92;87.98
51289;BME280;37372;52.294;5.152;2022-09-12T09:04:42;101612.72;;;17.98;88.29
51289;BME280;37372;52.294;5.152;2022-09-12T09:07:32;101625.75;;;18.12;87.00
51289;BME280;37372;52.294;5.152;2022-09-12T09:12:51;101607.03;;;18.28;86.00
51289;BME280;37372;52.294;5.152;2022-09-12T09:20:40;101609.22;;;18.36;87.36
51289;BME280;37372;52.294;5.152;2022-09-12T09:23:26;101610.38;;;18.52;87.36
51289;BME280;37372;52.294;5.152;2022-09-12T09:25:57;101615.25;;;18.51;87.49
51289;BME280;37372;52.294;5.152;2022-09-12T09:28:24;101611.75;;;18.47;88.55
51289;BME280;37372;52.294;5.152;2022-09-12T09:30:51;101606.41;;;18.49;89.33
51289;BME280;37372;52.294;5.152;2022-09-12T09:33:21;101603.13;;;18.51;89.80
51289;BME280;37372;52.294;5.152;2022-09-12T09:35:54;101602.91;;;18.58;89.84
51289;BME280;37372;52.294;5.152;2022-09-12T09:41:15;101596.88;;;18.69;89.13
51289;BME280;37372;52.294;5.152;2022-09-12T09:43:42;101597.66;;;18.69;89.67
51289;BME280;37372;52.294;5.152;2022-09-12T09:46:08;101601.66;;;18.72;89.71
51289;BME280;37372;52.294;5.152;2022-09-12T09:48:37;101582.81;;;18.78;88.23
51289;BME280;37372;52.294;5.152;2022-09-12T09:51:06;101591.44;;;18.87;88.20
51289;BME280;37372;52.294;5.152;2022-09-12T09:53:55;101587.69;;;18.90;85.66
51289;BME280;37372;52.294;5.152;2022-09-12T09:58:50;101584.97;;;18.99;85.87
51289;BME280;37372;52.294;5.152;2022-09-12T10:01:16;101579.03;;;19.06;86.12
51289;BME280;37372;52.294;5.152;2022-09-12T10:03:50;101579.03;;;19.19;86.27
51289;BME280;37372;52.294;5.152;2022-09-12T10:08:48;101572.72;;;19.37;85.22
51289;BME280;37372;52.294;5.152;2022-09-12T10:13:42;101568.59;;;19.38;83.68
51289;BME280;37372;52.294;5.152;2022-09-12T10:18:46;101557.81;;;19.33;82.67
51289;BME280;37372;52.294;5.152;2022-09-12T10:23:42;101551.13;;;19.27;84.75
51289;BME280;37372;52.294;5.152;2022-09-12T10:26:10;101556.34;;;19.41;81.71
51289;BME280;37372;52.294;5.152;2022-09-12T10:28:45;101549.03;;;19.40;80.33
51289;BME280;37372;52.294;5.152;2022-09-12T10:31:22;101550.97;;;19.43;79.87
51289;BME280;37372;52.294;5.152;2022-09-12T10:33:54;101549.47;;;19.51;79.44
51289;BME280;37372;52.294;5.152;2022-09-12T10:36:22;101540.22;;;19.60;77.67
51289;BME280;37372;52.294;5.152;2022-09-12T10:38:52;101539.66;;;19.52;78.60
51289;BME280;37372;52.294;5.152;2022-09-12T10:41:19;101535.09;;;19.55;78.96
51289;BME280;37372;52.294;5.152;2022-09-12T10:43:46;101541.00;;;19.61;80.12
51289;BME280;37372;52.294;5.152;2022-09-12T10:48:40;101534.06;;;19.62;79.32
51289;BME280;37372;52.294;5.152;2022-09-12T10:51:14;101529.66;;;19.83;80.22
51289;BME280;37372;52.294;5.152;2022-09-12T10:54:09;101533.03;;;19.90;77.82
51289;BME280;37372;52.294;5.152;2022-09-12T10:56:41;101530.56;;;20.02;78.05
51289;BME280;37372;52.294;5.152;2022-09-12T11:07:49;101536.13;;;20.05;77.34
51289;BME280;37372;52.294;5.152;2022-09-12T11:19:57;101527.50;;;20.18;76.48
51289;BME280;37372;52.294;5.152;2022-09-12T11:28:12;101513.53;;;20.42;76.09
51289;BME280;37372;52.294;5.152;2022-09-12T11:33:49;101518.50;;;20.51;75.55
51289;BME280;37372;52.294;5.152;2022-09-12T11:37:29;101511.91;;;20.63;74.97
51289;BME280;37372;52.294;5.152;2022-09-12T11:39:25;101514.44;;;20.61;74.28
51289;BME280;37372;52.294;5.152;2022-09-12T11:41:57;101513.78;;;20.57;75.01
51289;BME280;37372;52.294;5.152;2022-09-12T11:44:28;101512.84;;;20.60;75.33
51289;BME280;37372;52.294;5.152;2022-09-12T11:46:59;101515.75;;;20.69;74.86
51289;BME280;37372;52.294;5.152;2022-09-12T11:49:45;101515.25;;;20.62;74.34
51289;BME280;37372;52.294;5.152;2022-09-12T11:52:18;101508.75;;;20.61;74.51
51289;BME280;37372;52.294;5.152;2022-09-12T11:59:47;101504.66;;;20.80;73.79
51289;BME280;37372;52.294;5.152;2022-09-12T12:02:25;101505.94;;;20.89;73.06
51289;BME280;37372;52.294;5.152;2022-09-12T12:07:50;101509.00;;;20.94;72.93
51289;BME280;37372;52.294;5.152;2022-09-12T12:10:35;101510.72;;;20.92;73.22
51289;BME280;37372;52.294;5.152;2022-09-12T12:13:08;101512.47;;;20.98;70.67
51289;BME280;37372;52.294;5.152;2022-09-12T12:15:55;101511.53;;;20.92;71.06
51289;BME280;37372;52.294;5.152;2022-09-12T12:18:24;101497.72;;;20.91;72.46
51289;BME280;37372;52.294;5.152;2022-09-12T12:20:51;101502.97;;;20.92;72.86
51289;BME280;37372;52.294;5.152;2022-09-12T12:23:30;101504.28;;;21.10;71.57
51289;BME280;37372;52.294;5.152;2022-09-12T12:25:58;101499.03;;;21.17;69.68
51289;BME280;37372;52.294;5.152;2022-09-12T12:31:15;101492.38;;;21.20;68.01
51289;BME280;37372;52.294;5.152;2022-09-12T12:36:28;101489.56;;;21.30;65.12
51289;BME280;37372;52.294;5.152;2022-09-12T12:38:54;101484.78;;;21.27;66.57
51289;BME280;37372;52.294;5.152;2022-09-12T12:43:52;101464.66;;;21.39;66.90
51289;BME280;37372;52.294;5.152;2022-09-12T12:46:21;101462.00;;;21.45;67.07
51289;BME280;37372;52.294;5.152;2022-09-12T12:49:25;101459.44;;;21.47;66.84
51289;BME280;37372;52.294;5.152;2022-09-12T12:59:54;101460.38;;;21.62;62.83
51289;BME280;37372;52.294;5.152;2022-09-12T13:02:48;101444.69;;;21.58;63.71
51289;BME280;37372;52.294;5.152;2022-09-12T13:05:19;101448.81;;;21.57;64.38
51289;BME280;37372;52.294;5.152;2022-09-12T13:07:45;101444.84;;;21.63;64.04
51289;BME280;37372;52.294;5.152;2022-09-12T13:10:22;101434.66;;;21.72;64.43
51289;BME280;37372;52.294;5.152;2022-09-12T13:12:49;101430.38;;;21.76;64.30
51289;BME280;37372;52.294;5.152;2022-09-12T13:15:47;101427.31;;;21.89;64.74
51289;BME280;37372;52.294;5.152;2022-09-12T13:18:18;101433.66;;;21.93;64.87
51289;BME280;37372;52.294;5.152;2022-09-12T13:20:53;101429.22;;;21.92;62.25
51289;BME280;37372;52.294;5.152;2022-09-12T13:23:30;101430.16;;;21.98;62.33
51289;BME280;37372;52.294;5.152;2022-09-12T13:25:58;101424.72;;;22.00;63.36
51289;BME280;37372;52.294;5.152;2022-09-12T13:28:25;101420.94;;;22.03;63.51
51289;BME280;37372;52.294;5.152;2022-09-12T13:31:04;101429.00;;;22.05;63.30
51289;BME280;37372;52.294;5.152;2022-09-12T13:43:45;101411.84;;;22.14;62.15
51289;BME280;37372;52.294;5.152;2022-09-12T13:46:20;101417.72;;;22.10;61.81
51289;BME280;37372;52.294;5.152;2022-09-12T13:48:47;101415.22;;;22.03;61.08
51289;BME280;37372;52.294;5.152;2022-09-12T13:51:25;101407.31;;;21.98;62.75
51289;BME280;37372;52.294;5.152;2022-09-12T13:53:54;101409.13;;;22.10;62.15
51289;BME280;37372;52.294;5.152;2022-09-12T13:56:20;101406.59;;;22.13;61.56
51289;BME280;37372;52.294;5.152;2022-09-12T13:59:00;101405.81;;;22.12;60.95
51289;BME280;37372;52.294;5.152;2022-09-12T14:01:40;101396.31;;;22.06;60.59
51289;BME280;37372;52.294;5.152;2022-09-12T14:04:22;101393.59;;;22.11;61.57
51289;BME280;37372;52.294;5.152;2022-09-12T14:07:13;101377.06;;;22.16;62.63
51289;BME280;37372;52.294;5.152;2022-09-12T14:09:44;101368.28;;;22.28;62.19
51289;BME280;37372;52.294;5.152;2022-09-12T14:12:22;101372.88;;;22.35;61.98
51289;BME280;37372;52.294;5.152;2022-09-12T14:14:49;101375.41;;;22.33;61.11
51289;BME280;37372;52.294;5.152;2022-09-12T14:17:35;101367.22;;;22.50;58.89
51289;BME280;37372;52.294;5.152;2022-09-12T14:20:21;101372.25;;;22.31;59.14
51289;BME280;37372;52.294;5.152;2022-09-12T14:22:50;101373.84;;;22.32;59.38
51289;BME280;37372;52.294;5.152;2022-09-12T14:25:21;101361.00;;;22.27;59.60
51289;BME280;37372;52.294;5.152;2022-09-12T14:27:53;101356.50;;;22.36;60.09
51289;BME280;37372;52.294;5.152;2022-09-12T14:30:35;101362.34;;;22.41;59.97
51289;BME280;37372;52.294;5.152;2022-09-12T14:35:42;101357.03;;;22.49;60.58
51289;BME280;37372;52.294;5.152;2022-09-12T14:40:42;101361.13;;;22.57;60.11
51289;BME280;37372;52.294;5.152;2022-09-12T14:43:23;101357.03;;;22.49;58.34
51289;BME280;37372;52.294;5.152;2022-09-12T14:46:04;101353.03;;;22.56;58.83
51289;BME280;37372;52.294;5.152;2022-09-12T14:48:35;101344.16;;;22.53;59.41
51289;BME280;37372;52.294;5.152;2022-09-12T14:51:02;101350.22;;;22.46;58.28
51289;BME280;37372;52.294;5.152;2022-09-12T14:53:32;101345.50;;;22.43;59.10
51289;BME280;37372;52.294;5.152;2022-09-12T14:56:08;101348.03;;;22.41;59.09
51289;BME280;37372;52.294;5.152;2022-09-12T14:58:34;101344.91;;;22.39;58.69
51289;BME280;37372;52.294;5.152;2022-09-12T15:06:03;101339.47;;;22.41;57.85
51289;BME280;37372;52.294;5.152;2022-09-12T15:08:30;101337.22;;;22.45;58.59